Time;durP1;ratioP1;P1;durP2;ratioP2;P2;SDS_P1;SDS_P2;PMS_P1;PMS_P2;Temp;Humidity;BMP_temperature;BMP_pressure;BME280_temperature;BME280_humidity;BME280_pressure;Samples;Min_cycle;Max_cycle;Signal;HPM_P1;HPM_P2
2022/09/16 00:00:16;;;;;;;5.97;0.63;;;10.90;99.90;;;;;;5052018;28;20052;-78
2022/09/16 00:02:41;;;;;;;2.80;0.50;;;10.80;99.90;;;;;;5052032;28;20025;-77
2022/09/16 00:05:08;;;;;;;1.85;0.30;;;10.80;99.90;;;;;;5052067;28;20017;-78
2022/09/16 00:07:34;;;;;;;2.38;0.30;;;10.80;99.90;;;;;;5051939;28;20077;-78
2022/09/16 00:09:59;;;;;;;4.40;0.40;;;11.20;99.90;;;;;;5052197;28;20052;-78
2022/09/16 00:12:25;;;;;;;2.95;0.40;;;11.50;92.40;;;;;;5051942;28;20029;-78
2022/09/16 00:14:52;;;;;;;2.90;0.30;;;11.80;84.30;;;;;;5051920;28;20033;-77
2022/09/16 00:17:18;;;;;;;1.17;0.10;;;11.80;68.90;;;;;;5060236;28;20016;-78
2022/09/16 00:19:44;;;;;;;1.52;0.25;;;11.80;63.20;;;;;;5072038;28;20405;-78
2022/09/16 00:22:09;;;;;;;2.88;0.43;;;11.90;59.10;;;;;;5071993;28;20027;-78
2022/09/16 00:24:35;;;;;;;5.00;1.00;;;11.80;58.60;;;;;;5071786;28;20115;-77
2022/09/16 00:27:00;;;;;;;5.30;0.55;;;11.80;66.20;;;;;;5071699;28;20024;-78
2022/09/16 00:29:26;;;;;;;5.93;0.85;;;11.80;79.10;;;;;;5071893;28;20054;-78
2022/09/16 00:31:52;;;;;;;4.72;0.50;;;11.70;93.30;;;;;;5082886;22;20043;-72
2022/09/16 00:34:17;;;;;;;6.32;0.70;;;11.70;95.80;;;;;;5050213;28;20028;-72
2022/09/16 00:36:43;;;;;;;5.13;0.60;;;11.50;96.60;;;;;;5051406;28;20017;-72
2022/09/16 00:39:09;;;;;;;3.17;0.40;;;11.20;99.90;;;;;;5051302;28;20047;-72
2022/09/16 00:41:35;;;;;;;4.13;0.60;;;11.00;99.90;;;;;;5051437;28;20386;-73
2022/09/16 00:44:42;;;;;;;7.05;0.60;;;10.80;99.90;;;;;;5051484;28;20048;-72
2022/09/16 00:47:08;;;;;;;4.60;0.47;;;10.70;99.90;;;;;;5051132;28;20033;-73
2022/09/16 00:49:33;;;;;;;4.60;0.60;;;10.70;99.90;;;;;;5051221;28;20025;-73
2022/09/16 00:52:04;;;;;;;3.13;0.60;;;10.60;99.90;;;;;;5051304;28;20108;-73
2022/09/16 00:54:31;;;;;;;4.20;0.70;;;10.60;99.90;;;;;;5051144;28;20053;-73
2022/09/16 00:56:58;;;;;;;9.27;0.82;;;10.50;99.90;;;;;;5051281;28;20083;-72
2022/09/16 00:59:37;;;;;;;5.70;0.57;;;10.60;99.90;;;;;;5050942;28;20423;-73
2022/09/16 01:02:07;;;;;;;4.38;0.60;;;10.70;99.90;;;;;;5051494;28;20391;-73
2022/09/16 01:04:56;;;;;;;5.43;0.52;;;10.80;99.90;;;;;;5051191;28;20021;-73
2022/09/16 01:07:46;;;;;;;4.22;0.70;;;10.70;99.90;;;;;;5051298;28;20025;-73
2022/09/16 01:10:13;;;;;;;;;;;10.80;99.90;;;;;;5051526;28;20017;-73
2022/09/16 01:12:42;;;;;;;1.80;0.50;;;10.70;99.90;;;;;;5051056;28;19909;-72
2022/09/16 01:15:09;;;;;;;4.13;0.75;;;10.50;99.90;;;;;;5051012;28;20454;-72
2022/09/16 01:18:11;;;;;;;3.35;0.60;;;10.40;99.90;;;;;;5051328;28;20052;-72
2022/09/16 01:21:02;;;;;;;3.08;0.60;;;10.30;99.90;;;;;;5031267;28;20057;-72
2022/09/16 01:23:48;;;;;;;3.30;0.77;;;10.20;99.90;;;;;;5031157;28;20018;-73
2022/09/16 01:26:54;;;;;;;6.30;0.70;;;10.20;99.90;;;;;;5031057;28;20037;-73
2022/09/16 01:29:46;;;;;;;6.28;0.60;;;10.00;99.90;;;;;;5030887;28;20533;-73
2022/09/16 01:32:21;;;;;;;2.75;0.52;;;10.00;99.90;;;;;;5024177;28;20049;-72
2022/09/16 01:35:01;;;;;;;2.15;0.40;;;10.10;99.90;;;;;;5009765;28;20026;-72
2022/09/16 01:38:03;;;;;;;4.68;0.60;;;10.40;99.90;;;;;;5011673;28;20033;-73
2022/09/16 01:40:43;;;;;;;2.42;0.40;;;10.40;99.90;;;;;;5030939;28;20039;-73
2022/09/16 01:43:37;;;;;;;2.33;0.40;;;10.50;99.90;;;;;;5034574;28;20029;-72
2022/09/16 01:46:06;;;;;;;10.80;0.52;;;10.70;99.90;;;;;;5014792;28;20461;-73
2022/09/16 01:48:35;;;;;;;4.03;0.60;;;11.00;93.90;;;;;;5014460;28;20099;-72
2022/09/16 01:51:20;;;;;;;3.85;0.65;;;11.10;91.80;;;;;;5019027;28;20021;-73
2022/09/16 01:53:57;;;;;;;4.47;0.70;;;11.10;92.10;;;;;;5034258;28;20057;-73
2022/09/16 01:56:29;;;;;;;2.03;0.47;;;11.10;94.70;;;;;;5034427;28;20116;-73
2022/09/16 01:59:14;;;;;;;11.95;0.98;;;11.00;95.80;;;;;;5034292;28;20053;-73
2022/09/16 02:01:54;;;;;;;3.67;0.73;;;11.00;95.20;;;;;;5034231;28;20044;-73
2022/09/16 02:04:28;;;;;;;3.22;0.68;;;10.80;99.40;;;;;;5034068;28;20083;-73
2022/09/16 02:06:55;;;;;;;2.83;0.50;;;10.70;99.90;;;;;;5034066;28;20032;-72
2022/09/16 02:09:39;;;;;;;5.55;0.70;;;10.60;99.90;;;;;;5034057;28;20120;-73
2022/09/16 02:12:11;;;;;;;4.45;0.68;;;10.50;99.90;;;;;;5034022;28;20025;-73
2022/09/16 02:14:42;;;;;;;4.45;1.38;;;10.50;99.90;;;;;;5034127;28;20026;-72
2022/09/16 02:17:11;;;;;;;5.25;0.47;;;10.40;99.90;;;;;;5034074;28;20060;-72
2022/09/16 02:20:01;;;;;;;4.20;1.35;;;10.40;99.90;;;;;;5033999;28;20021;-72
2022/09/16 02:22:42;;;;;;;3.30;0.82;;;10.30;99.90;;;;;;5033854;28;20052;-72
2022/09/16 02:25:10;;;;;;;2.30;0.43;;;10.20;99.90;;;;;;5033711;28;20041;-73
2022/09/16 02:27:39;;;;;;;3.25;0.40;;;10.20;99.90;;;;;;5033820;28;20026;-73
2022/09/16 02:30:08;;;;;;;4.93;0.85;;;10.00;99.90;;;;;;5033650;28;20032;-72
2022/09/16 02:32:38;;;;;;;3.53;0.50;;;10.20;99.90;;;;;;5033287;28;20080;-72
2022/09/16 02:35:07;;;;;;;4.03;0.60;;;10.50;99.90;;;;;;5033675;28;20251;-73
2022/09/16 02:37:47;;;;;;;2.53;0.40;;;10.80;99.90;;;;;;5026897;28;20468;-72
2022/09/16 02:40:21;;;;;;;2.88;0.45;;;11.10;96.70;;;;;;5068841;28;20155;-73
2022/09/16 02:42:48;;;;;;;4.15;0.90;;;11.00;97.30;;;;;;5053362;28;20036;-73
2022/09/16 02:45:14;;;;;;;4.43;0.90;;;11.10;96.40;;;;;;5053532;28;20021;-73
2022/09/16 02:48:04;;;;;;;5.45;0.82;;;11.00;96.80;;;;;;5053378;28;20061;-73
2022/09/16 02:50:37;;;;;;;;;;;11.00;93.90;;;;;;5053439;28;20021;-73
2022/09/16 02:53:14;;;;;;;3.15;0.80;;;10.80;96.10;;;;;;5053324;28;19908;-73
2022/09/16 02:55:59;;;;;;;4.88;0.63;;;10.70;99.30;;;;;;5045128;28;20033;-72
2022/09/16 02:58:25;;;;;;;4.22;0.50;;;10.70;96.70;;;;;;5050726;28;20021;-73
2022/09/16 03:00:54;;;;;;;10.88;0.60;;;10.70;92.20;;;;;;5053149;28;20024;-73
2022/09/16 03:03:20;;;;;;;2.45;0.47;;;10.80;79.40;;;;;;5052873;28;20029;-73
2022/09/16 03:06:02;;;;;;;2.15;0.40;;;10.80;77.70;;;;;;5052921;28;20025;-73
2022/09/16 03:08:28;;;;;;;4.38;0.73;;;11.00;66.30;;;;;;5013347;28;20018;-72
2022/09/16 03:11:01;;;;;;;4.05;0.57;;;10.90;67.70;;;;;;5013470;28;20068;-73
2022/09/16 03:13:36;;;;;;;2.92;0.50;;;10.80;73.00;;;;;;5032741;28;20044;-73
2022/09/16 03:16:21;;;;;;;6.15;0.50;;;10.60;80.60;;;;;;5032799;28;20033;-72
2022/09/16 03:19:04;;;;;;;6.80;0.63;;;10.50;82.90;;;;;;5044167;28;20460;-73
2022/09/16 03:21:43;;;;;;;3.67;0.55;;;10.50;86.80;;;;;;5052805;28;20107;-73
2022/09/16 03:24:29;;;;;;;9.43;1.25;;;10.30;91.30;;;;;;5052694;28;20021;-73
2022/09/16 03:27:10;;;;;;;3.13;0.60;;;10.20;95.90;;;;;;5052488;28;20032;-73
2022/09/16 03:30:05;;;;;;;3.97;0.90;;;10.10;99.40;;;;;;5052595;28;20013;-73
2022/09/16 03:32:53;;;;;;;5.00;0.80;;;10.10;99.90;;;;;;5051467;28;20048;-73
2022/09/16 03:35:26;;;;;;;6.95;1.27;;;10.00;99.90;;;;;;5038518;28;20037;-72
2022/09/16 03:37:54;;;;;;;9.07;1.15;;;10.10;99.90;;;;;;5032270;28;20035;-73
2022/09/16 03:40:20;;;;;;;1.70;0.40;;;10.30;98.90;;;;;;5032690;28;20021;-73
2022/09/16 03:42:46;;;;;;;7.65;0.80;;;10.50;94.30;;;;;;5020312;28;20101;-73
2022/09/16 03:45:18;;;;;;;3.05;0.50;;;10.60;87.60;;;;;;5014438;28;20096;-73
2022/09/16 03:47:46;;;;;;;3.10;0.60;;;10.80;72.40;;;;;;5020415;28;20060;-73
2022/09/16 03:50:13;;;;;;;6.07;0.90;;;10.90;69.00;;;;;;5012522;28;20022;-73
2022/09/16 03:52:39;;;;;;;9.77;1.10;;;10.80;66.30;;;;;;5012737;28;20018;-73
2022/09/16 03:55:06;;;;;;;8.95;0.98;;;10.80;64.30;;;;;;5028844;28;20040;-73
2022/09/16 03:57:32;;;;;;;7.78;1.48;;;10.80;59.30;;;;;;5014020;28;20018;-72
2022/09/16 03:59:57;;;;;;;7.10;1.20;;;10.90;52.70;;;;;;5012462;28;20018;-73
2022/09/16 04:02:23;;;;;;;5.10;0.90;;;11.00;51.60;;;;;;5011846;28;20541;-72
2022/09/16 04:04:48;;;;;;;6.82;0.95;;;10.90;47.70;;;;;;5023811;28;20033;-72
2022/09/16 04:07:14;;;;;;;3.17;0.93;;;10.80;48.90;;;;;;5031864;28;20028;-73
2022/09/16 04:09:41;;;;;;;6.95;1.05;;;10.70;38.70;;;;;;5031899;28;20030;-72
2022/09/16 04:12:06;;;;;;;5.32;0.57;;;10.80;27.70;;;;;;5032097;28;20022;-72
2022/09/16 04:14:33;;;;;;;5.70;0.88;;;10.70;23.60;;;;;;5031662;28;20034;-72
2022/09/16 04:16:59;;;;;;;5.45;0.60;;;10.70;16.10;;;;;;5031410;28;20014;-72
2022/09/16 04:19:24;;;;;;;6.82;1.00;;;10.60;8.80;;;;;;5031446;28;20040;-72
2022/09/16 04:21:50;;;;;;;1.88;0.28;;;10.60;7.40;;;;;;5031419;28;20065;-72
2022/09/16 04:24:16;;;;;;;3.28;0.70;;;10.50;5.10;;;;;;5017568;28;20105;-72
2022/09/16 04:26:42;;;;;;;7.60;0.75;;;10.30;3.40;;;;;;5011517;28;20026;-73
2022/09/16 04:29:08;;;;;;;7.45;0.73;;;10.30;5.00;;;;;;5011593;28;20022;-72
2022/09/16 04:31:34;;;;;;;7.03;0.57;;;10.10;5.80;;;;;;5011559;28;20537;-73
2022/09/16 04:34:03;;;;;;;7.78;0.50;;;10.00;9.40;;;;;;5022107;28;20086;-72
2022/09/16 04:36:29;;;;;;;5.25;0.70;;;10.20;8.70;;;;;;5031241;28;20033;-72
2022/09/16 04:38:54;;;;;;;6.13;0.60;;;10.20;8.60;;;;;;5031417;28;20030;-72
2022/09/16 04:41:23;;;;;;;3.47;0.63;;;10.20;12.40;;;;;;5031228;28;20025;-72
2022/09/16 04:43:55;;;;;;;6.05;0.80;;;10.20;15.10;;;;;;5031081;28;20032;-72
2022/09/16 04:46:21;;;;;;;6.20;0.65;;;10.20;16.40;;;;;;5031217;28;20036;-72
2022/09/16 04:48:48;;;;;;;14.55;1.33;;;10.20;16.10;;;;;;5031321;28;20021;-72
2022/09/16 04:51:14;;;;;;;5.57;0.65;;;10.10;22.40;;;;;;5031089;28;20018;-73
2022/09/16 04:53:42;;;;;;;5.05;0.70;;;10.30;20.00;;;;;;5031419;28;20073;-72
2022/09/16 04:56:19;;;;;;;4.18;0.60;;;10.00;26.50;;;;;;5031567;28;20021;-72
2022/09/16 04:58:47;;;;;;;7.72;0.65;;;10.00;27.70;;;;;;5031389;28;20029;-72
2022/09/16 05:01:22;;;;;;;5.82;0.65;;;10.10;25.50;;;;;;5031241;28;20032;-72
2022/09/16 05:03:50;;;;;;;5.82;0.80;;;10.10;32.00;;;;;;5030996;28;20086;-73
2022/09/16 05:06:21;;;;;;;3.90;0.50;;;10.20;25.00;;;;;;5031296;28;20021;-72
2022/09/16 05:08:48;;;;;;;6.97;1.20;;;10.40;20.30;;;;;;5031163;28;20167;-73
2022/09/16 05:11:20;;;;;;;7.63;0.65;;;10.50;22.40;;;;;;5031124;28;20025;-73
2022/09/16 05:13:46;;;;;;;6.25;0.75;;;10.50;22.40;;;;;;5030717;28;20042;-73
2022/09/16 05:16:13;;;;;;;2.17;0.38;;;10.70;22.40;;;;;;5034469;28;20029;-72
2022/09/16 05:18:41;;;;;;;5.38;0.30;;;11.30;20.30;;;;;;5034890;28;20127;-72
2022/09/16 05:21:09;;;;;;;8.65;0.65;;;11.40;22.50;;;;;;5035045;28;20558;-72
2022/09/16 05:23:35;;;;;;;7.25;1.17;;;11.30;27.30;;;;;;5034668;28;20018;-72
2022/09/16 05:26:03;;;;;;;4.90;0.70;;;11.10;37.20;;;;;;5034711;28;20505;-73
2022/09/16 05:28:29;;;;;;;6.43;0.80;;;11.00;44.40;;;;;;5034781;28;20018;-73
2022/09/16 05:30:54;;;;;;;8.27;1.05;;;11.00;47.70;;;;;;5034536;28;20056;-72
2022/09/16 05:33:20;;;;;;;6.28;0.70;;;11.00;50.10;;;;;;5033151;28;20054;-73
2022/09/16 05:35:46;;;;;;;8.18;1.10;;;11.10;37.90;;;;;;5034411;28;20029;-72
2022/09/16 05:38:12;;;;;;;7.38;0.80;;;11.10;34.60;;;;;;5034288;28;20524;-73
2022/09/16 05:40:38;;;;;;;3.20;1.35;;;11.20;38.00;;;;;;5051109;28;20021;-73
2022/09/16 05:43:04;;;;;;;5.70;0.52;;;11.50;26.80;;;;;;5054512;28;20053;-73
2022/09/16 05:45:30;;;;;;;5.97;0.50;;;11.80;24.00;;;;;;5054102;28;20056;-74
2022/09/16 05:47:55;;;;;;;5.22;0.70;;;12.00;25.60;;;;;;5014772;28;20369;-73
2022/09/16 05:50:21;;;;;;;7.68;1.05;;;12.10;25.10;;;;;;5014672;28;20037;-73
2022/09/16 05:52:46;;;;;;;4.45;0.75;;;12.10;21.40;;;;;;5014487;28;20026;-73
2022/09/16 05:55:12;;;;;;;3.38;0.90;;;12.20;17.80;;;;;;5014613;28;20528;-73
2022/09/16 05:57:37;;;;;;;3.03;0.50;;;12.10;15.00;;;;;;5014598;28;20536;-73
2022/09/16 06:00:05;;;;;;;7.07;1.08;;;12.20;12.70;;;;;;5014363;28;20033;-74
2022/09/16 06:02:30;;;;;;;7.53;1.35;;;12.10;11.00;;;;;;5025975;28;20021;-74
2022/09/16 06:04:56;;;;;;;4.10;0.40;;;12.00;7.70;;;;;;5033970;28;20040;-74
2022/09/16 06:07:21;;;;;;;2.47;0.30;;;12.00;6.20;;;;;;5033638;28;20025;-74
2022/09/16 06:09:47;;;;;;;3.50;0.85;;;12.30;4.10;;;;;;5033660;28;20021;-74
2022/09/16 06:12:13;;;;;;;1.65;0.20;;;12.80;4.90;;;;;;5031661;28;20068;-73
2022/09/16 06:14:38;;;;;;;2.58;0.20;;;12.90;4.80;;;;;;5013709;28;20026;-73
2022/09/16 06:17:04;;;;;;;3.05;0.50;;;12.70;6.10;;;;;;5014104;28;20132;-73
2022/09/16 06:19:30;;;;;;;2.95;0.20;;;12.40;9.50;;;;;;5013968;28;20030;-73
2022/09/16 06:21:56;;;;;;;4.25;0.32;;;12.30;11.50;;;;;;5014031;28;20037;-73
2022/09/16 06:24:21;;;;;;;8.35;1.05;;;12.30;13.70;;;;;;5013510;28;20053;-73
2022/09/16 06:26:48;;;;;;;3.60;0.63;;;12.40;15.20;;;;;;5013421;28;20022;-74
2022/09/16 06:29:15;;;;;;;2.92;0.52;;;12.70;14.70;;;;;;5027176;28;20061;-74
2022/09/16 06:31:41;;;;;;;6.15;0.60;;;13.10;10.40;;;;;;5033530;28;20014;-73
2022/09/16 06:34:11;;;;;;;11.20;0.93;;;13.40;7.00;;;;;;5032263;28;20049;-74
2022/09/16 06:36:37;;;;;;;;;;;13.60;5.80;;;;;;5034069;28;20029;-74
2022/09/16 06:39:04;;;;;;;3.55;0.65;;;13.80;4.00;;;;;;5033340;28;20387;-74
2022/09/16 06:41:32;;;;;;;4.55;0.45;;;14.30;1.50;;;;;;5033613;28;20028;-74
2022/09/16 06:43:58;;;;;;;6.53;0.63;;;14.80;1.00;;;;;;5033690;28;20022;-74
2022/09/16 06:46:26;;;;;;;2.38;0.28;;;14.80;1.00;;;;;;5033335;28;20067;-74
2022/09/16 06:48:55;;;;;;;3.40;0.38;;;14.80;1.00;;;;;;5033139;28;20130;-74
2022/09/16 06:51:25;;;;;;;5.40;0.68;;;14.90;1.00;;;;;;5033400;28;20064;-74
2022/09/16 06:53:52;;;;;;;4.75;0.43;;;14.90;1.00;;;;;;5033136;28;20045;-74
2022/09/16 06:56:20;;;;;;;6.47;0.52;;;15.00;1.00;;;;;;5024443;28;20049;-74
2022/09/16 06:58:48;;;;;;;7.82;0.63;;;18.20;1.00;;;;;;5013979;28;20105;-74
2022/09/16 07:01:18;;;;;;;4.63;0.60;;;19.40;1.00;;;;;;5029148;28;20029;-74
2022/09/16 07:03:46;;;;;;;7.50;0.80;;;17.50;1.00;;;;;;5015413;28;20068;-74
2022/09/16 07:06:13;;;;;;;9.20;1.20;;;22.60;1.00;;;;;;5018295;28;20030;-74
2022/09/16 07:08:39;;;;;;;9.60;0.85;;;25.90;1.00;;;;;;5013331;28;20022;-74
2022/09/16 07:11:06;;;;;;;7.85;0.98;;;27.30;1.00;;;;;;5023742;28;20049;-74
2022/09/16 07:13:32;;;;;;;8.25;0.77;;;27.70;1.00;;;;;;5030736;28;20040;-74
2022/09/16 07:16:03;;;;;;;4.07;0.60;;;29.00;1.00;;;;;;5031163;28;20022;-74
2022/09/16 07:18:30;;;;;;;4.03;0.50;;;30.60;1.00;;;;;;5031191;28;20434;-74
2022/09/16 07:21:10;;;;;;;4.53;0.50;;;30.30;1.00;;;;;;5031474;28;20495;-74
2022/09/16 07:23:36;;;;;;;;;;;29.50;1.00;;;;;;5032160;28;20372;-74
2022/09/16 07:26:04;;;;;;;6.47;0.95;;;29.90;1.00;;;;;;5031128;28;20383;-74
2022/09/16 07:28:31;;;;;;;5.25;0.80;;;28.20;1.00;;;;;;5031847;28;20390;-74
2022/09/16 07:31:01;;;;;;;2.30;0.60;;;27.80;1.00;;;;;;5031844;28;20025;-75
2022/09/16 07:33:26;;;;;;;2.58;0.60;;;27.00;1.00;;;;;;5030664;28;20111;-75
2022/09/16 07:35:52;;;;;;;6.53;1.00;;;28.00;1.00;;;;;;5032378;28;20416;-75
2022/09/16 07:38:17;;;;;;;5.40;0.60;;;24.40;1.00;;;;;;5031428;28;20164;-74
2022/09/16 07:40:50;;;;;;;4.82;0.60;;;21.20;1.00;;;;;;5032497;28;20088;-74
2022/09/16 07:43:15;;;;;;;6.78;0.98;;;19.90;1.00;;;;;;5032508;28;20037;-74
2022/09/16 07:45:41;;;;;;;7.03;1.05;;;19.50;1.00;;;;;;5032342;28;20018;-75
2022/09/16 07:48:06;;;;;;;9.65;1.42;;;19.40;1.00;;;;;;5032396;28;20020;-75
2022/09/16 07:50:32;;;;;;;6.55;1.00;;;21.80;1.00;;;;;;5031122;28;20423;-74
2022/09/16 07:52:57;;;;;;;6.93;1.17;;;26.90;1.00;;;;;;5012659;28;20416;-75
2022/09/16 07:55:23;;;;;;;7.00;1.30;;;29.10;1.00;;;;;;5012634;28;20018;-75
2022/09/16 07:57:48;;;;;;;6.28;0.70;;;31.10;1.00;;;;;;5012573;28;20093;-74
2022/09/16 08:00:15;;;;;;;2.70;0.60;;;30.50;1.00;;;;;;5012424;28;20022;-74
2022/09/16 08:02:41;;;;;;;3.80;0.82;;;29.20;1.00;;;;;;5012396;28;20344;-75
2022/09/16 08:05:08;;;;;;;4.38;1.02;;;29.10;1.00;;;;;;5023282;28;20076;-75
2022/09/16 08:07:34;;;;;;;4.68;0.60;;;30.30;1.00;;;;;;5036642;28;20022;-75
2022/09/16 08:09:59;;;;;;;5.10;0.60;;;31.60;1.00;;;;;;5032051;28;20022;-74
2022/09/16 08:12:25;;;;;;;5.45;0.75;;;31.70;1.00;;;;;;5031640;28;20072;-74
2022/09/16 08:14:50;;;;;;;2.65;0.65;;;33.80;1.00;;;;;;5031283;28;20079;-73
2022/09/16 08:17:16;;;;;;;4.35;0.60;;;32.80;1.00;;;;;;5031874;28;20025;-73
2022/09/16 08:19:42;;;;;;;1.92;0.77;;;32.60;1.00;;;;;;5031838;28;20104;-73
2022/09/16 08:22:07;;;;;;;3.83;0.80;;;31.70;1.00;;;;;;5031622;28;20140;-74
2022/09/16 08:24:33;;;;;;;4.30;0.60;;;32.30;1.00;;;;;;5031623;28;20018;-74
2022/09/16 08:26:59;;;;;;;3.25;0.57;;;33.50;1.00;;;;;;5031608;28;20394;-74
2022/09/16 08:29:24;;;;;;;3.70;0.85;;;32.30;1.00;;;;;;5031640;28;20584;-73
2022/09/16 08:31:50;;;;;;;4.13;0.80;;;31.60;1.00;;;;;;5031324;28;20108;-74
2022/09/16 08:34:17;;;;;;;4.88;0.90;;;29.20;1.00;;;;;;5030406;28;20048;-74
2022/09/16 08:36:42;;;;;;;2.67;0.50;;;25.40;1.00;;;;;;5031420;28;20508;-74
2022/09/16 08:39:09;;;;;;;7.47;0.90;;;22.10;1.00;;;;;;5031161;28;20110;-75
2022/09/16 08:41:59;;;;;;;6.45;0.77;;;20.80;1.00;;;;;;5031776;28;20021;-75
2022/09/16 08:44:31;;;;;;;5.65;0.70;;;20.20;1.00;;;;;;5031283;28;20033;-75
2022/09/16 08:47:05;;;;;;;4.88;0.80;;;23.40;1.00;;;;;;5031439;28;20021;-75
2022/09/16 08:49:45;;;;;;;4.15;0.68;;;28.00;1.00;;;;;;5034195;28;20027;-75
2022/09/16 08:52:14;;;;;;;4.13;0.63;;;30.30;1.00;;;;;;5041574;28;20017;-75
2022/09/16 08:54:43;;;;;;;4.45;0.70;;;31.70;1.00;;;;;;5055789;28;20025;-75
2022/09/16 08:57:14;;;;;;;3.42;0.47;;;32.10;1.00;;;;;;5015452;28;20372;-76
2022/09/16 08:59:45;;;;;;;3.60;0.52;;;31.50;1.00;;;;;;5015950;28;20030;-76
2022/09/16 09:02:42;;;;;;;3.08;0.50;;;30.50;1.00;;;;;;5015335;28;20457;-75
2022/09/16 09:05:17;;;;;;;3.17;0.70;;;30.60;1.00;;;;;;5030684;28;20022;-75
2022/09/16 09:08:09;;;;;;;3.40;0.50;;;31.10;1.00;;;;;;5038259;28;20115;-76
2022/09/16 09:10:44;;;;;;;4.78;0.50;;;29.60;1.00;;;;;;5035079;28;20480;-75
2022/09/16 09:13:21;;;;;;;6.43;0.80;;;24.50;1.00;;;;;;5035166;28;20025;-75
2022/09/16 09:16:02;;;;;;;2.88;0.82;;;21.90;1.00;;;;;;5035062;28;20590;-75
2022/09/16 09:18:52;;;;;;;11.15;1.17;;;26.60;1.00;;;;;;5034891;28;20467;-75
2022/09/16 09:21:22;;;;;;;4.10;0.75;;;29.20;1.00;;;;;;5034713;28;20032;-75
2022/09/16 09:23:54;;;;;;;7.00;0.73;;;25.20;1.00;;;;;;5034842;28;20018;-75
2022/09/16 09:26:28;;;;;;;5.30;0.60;;;25.70;1.00;;;;;;5035200;28;20052;-75
2022/09/16 09:29:00;;;;;;;5.28;0.70;;;24.80;1.00;;;;;;5034797;28;20029;-75
2022/09/16 09:31:39;;;;;;;6.20;0.90;;;28.60;1.00;;;;;;5034546;28;20021;-75
2022/09/16 09:34:15;;;;;;;5.97;1.08;;;30.40;1.00;;;;;;5033731;28;20189;-75
2022/09/16 09:37:18;;;;;;;9.05;1.38;;;26.80;1.00;;;;;;5034400;28;20033;-75
2022/09/16 09:39:56;;;;;;;2.72;0.75;;;22.80;1.00;;;;;;5014838;28;20431;-75
2022/09/16 09:42:34;;;;;;;3.10;0.50;;;24.10;1.00;;;;;;5014513;28;20026;-75
2022/09/16 09:45:17;;;;;;;7.60;0.90;;;27.60;1.00;;;;;;5014311;28;20069;-75
2022/09/16 09:47:50;;;;;;;2.85;0.70;;;27.80;1.00;;;;;;5014626;28;20022;-75
2022/09/16 09:50:22;;;;;;;6.30;0.57;;;29.00;1.00;;;;;;5032667;28;20028;-74
2022/09/16 09:52:47;;;;;;;2.15;0.82;;;27.80;1.00;;;;;;5023904;28;20080;-74
2022/09/16 09:55:20;;;;;;;3.10;0.85;;;27.30;1.00;;;;;;5030304;28;20488;-74
2022/09/16 09:58:07;;;;;;;5.75;0.80;;;28.50;1.00;;;;;;5034972;28;20052;-74
2022/09/16 10:00:33;;;;;;;2.97;0.60;;;27.30;1.00;;;;;;5033384;28;20021;-74
2022/09/16 10:03:06;;;;;;;2.88;1.00;;;28.20;1.00;;;;;;5034734;28;20783;-75
2022/09/16 10:05:32;;;;;;;3.90;0.70;;;27.90;1.00;;;;;;5033394;28;20025;-75
2022/09/16 10:08:14;;;;;;;6.75;0.88;;;25.20;1.00;;;;;;5028481;28;20025;-74
2022/09/16 10:11:05;;;;;;;9.60;1.20;;;24.30;1.00;;;;;;5034594;28;20022;-75
2022/09/16 10:13:31;;;;;;;7.07;0.80;;;26.90;1.00;;;;;;5034336;28;20053;-75
2022/09/16 10:16:14;;;;;;;7.65;0.65;;;28.90;1.00;;;;;;5034492;28;20017;-74
2022/09/16 10:18:41;;;;;;;6.57;1.17;;;28.10;1.00;;;;;;5023281;28;20624;-74
2022/09/16 10:21:13;;;;;;;4.90;1.10;;;26.00;1.00;;;;;;5029564;28;20032;-75
2022/09/16 10:23:39;;;;;;;5.03;0.90;;;24.10;1.00;;;;;;5035301;28;20512;-75
2022/09/16 10:26:25;;;;;;;6.55;0.82;;;27.40;1.00;;;;;;5034766;28;20113;-75
2022/09/16 10:29:00;;;;;;;5.57;0.50;;;27.60;1.00;;;;;;5029526;28;20049;-75
2022/09/16 10:31:34;;;;;;;2.85;0.65;;;26.70;1.00;;;;;;5024133;28;20037;-75
2022/09/16 10:34:01;;;;;;;1.15;0.43;;;26.70;1.00;;;;;;5019868;28;20486;-75
2022/09/16 10:36:31;;;;;;;4.30;0.50;;;25.50;1.00;;;;;;5034417;28;20076;-75
2022/09/16 10:39:00;;;;;;;4.20;0.85;;;25.40;1.00;;;;;;5033823;28;20452;-75
2022/09/16 10:41:40;;;;;;;7.70;1.17;;;24.50;1.00;;;;;;5034029;28;20022;-75
2022/09/16 10:44:14;;;;;;;6.18;0.82;;;23.70;1.00;;;;;;5022079;28;20040;-76
2022/09/16 10:47:14;;;;;;;3.00;0.40;;;22.30;1.00;;;;;;5031176;28;20025;-74
2022/09/16 10:49:46;;;;;;;3.63;0.63;;;21.10;1.00;;;;;;5022026;28;20048;-75
2022/09/16 10:52:19;;;;;;;3.20;0.60;;;20.70;1.00;;;;;;5027509;28;20105;-76
2022/09/16 10:54:46;;;;;;;1.73;0.38;;;19.90;1.00;;;;;;5018313;28;20033;-76
2022/09/16 10:57:27;;;;;;;5.32;1.02;;;19.80;1.00;;;;;;5028922;28;20471;-76
2022/09/16 11:00:12;;;;;;;5.05;0.52;;;19.70;1.00;;;;;;5034303;28;20024;-76
2022/09/16 11:02:54;;;;;;;2.78;0.40;;;19.20;1.00;;;;;;5033921;28;20411;-76
2022/09/16 11:05:50;;;;;;;4.40;0.70;;;19.30;1.00;;;;;;5019798;28;20056;-76
2022/09/16 11:08:47;;;;;;;8.32;0.65;;;19.90;1.00;;;;;;5013766;28;20018;-76
2022/09/16 11:11:19;;;;;;;3.22;0.52;;;19.70;1.00;;;;;;5014064;28;20161;-76
2022/09/16 11:14:02;;;;;;;9.32;0.95;;;19.20;1.00;;;;;;5040837;28;20029;-76
2022/09/16 11:16:52;;;;;;;6.93;0.80;;;19.00;1.00;;;;;;5053392;28;20151;-76
2022/09/16 11:19:38;;;;;;;2.50;0.90;;;18.90;1.00;;;;;;5053720;28;20032;-76
2022/09/16 11:22:31;;;;;;;5.53;0.77;;;18.60;1.00;;;;;;5053477;28;20045;-76
2022/09/16 11:25:21;;;;;;;5.40;0.60;;;19.00;1.00;;;;;;5041706;28;20446;-76
2022/09/16 11:28:24;;;;;;;2.47;0.60;;;19.10;1.00;;;;;;5021862;28;20022;-75
2022/09/16 11:31:06;;;;;;;5.88;0.85;;;18.70;1.00;;;;;;5027937;28;20021;-75
2022/09/16 11:33:52;;;;;;;6.22;0.63;;;18.40;1.00;;;;;;5036167;28;20511;-75
2022/09/16 11:36:35;;;;;;;5.75;0.90;;;18.50;1.00;;;;;;5021717;28;20026;-74
2022/09/16 11:39:34;;;;;;;3.80;0.30;;;18.60;1.00;;;;;;5013537;28;20033;-75
2022/09/16 11:42:25;;;;;;;4.40;0.77;;;18.40;1.00;;;;;;5019638;28;20480;-74
2022/09/16 11:45:06;;;;;;;4.78;0.73;;;18.90;1.00;;;;;;5018133;28;20109;-74
2022/09/16 11:47:54;;;;;;;8.07;0.90;;;18.90;1.00;;;;;;5023797;28;20022;-73
2022/09/16 11:50:27;;;;;;;8.07;1.00;;;19.50;1.00;;;;;;5023109;28;20022;-74
2022/09/16 11:53:14;;;;;;;5.95;0.93;;;19.40;1.00;;;;;;5025458;28;20026;-77
2022/09/16 11:55:46;;;;;;;6.80;1.20;;;18.60;1.00;;;;;;5018428;28;20034;-76
2022/09/16 11:58:24;;;;;;;7.88;0.77;;;18.30;1.00;;;;;;5018489;28;20053;-76
2022/09/16 12:00:52;;;;;;;8.52;1.17;;;18.90;1.00;;;;;;5023594;28;20037;-76
2022/09/16 12:03:54;;;;;;;5.88;1.10;;;19.00;1.00;;;;;;5032818;28;20029;-76
2022/09/16 12:06:24;;;;;;;4.35;0.63;;;18.80;1.00;;;;;;5023929;28;20144;-77
2022/09/16 12:08:49;;;;;;;;;;;19.10;1.00;;;;;;5022792;28;20032;-76
2022/09/16 12:11:26;;;;;;;7.57;1.00;;;19.00;1.00;;;;;;5033006;28;19905;-76
2022/09/16 12:14:02;;;;;;;6.63;0.85;;;19.00;1.00;;;;;;5021459;28;20037;-76
2022/09/16 12:16:46;;;;;;;6.07;0.70;;;19.00;1.00;;;;;;5021718;28;20540;-79
2022/09/16 12:19:37;;;;;;;6.93;0.80;;;19.10;1.00;;;;;;5019838;28;20026;-77
2022/09/16 12:22:15;;;;;;;11.10;0.85;;;19.00;1.00;;;;;;5014514;28;20172;-77
2022/09/16 12:24:59;;;;;;;8.73;1.73;;;19.30;1.00;;;;;;5032343;28;20025;-77
2022/09/16 12:27:51;;;;;;;4.28;0.60;;;19.40;1.00;;;;;;5028836;28;20063;-77
2022/09/16 12:30:24;;;;;;;7.47;1.08;;;20.00;1.00;;;;;;5028066;28;20028;-78
2022/09/16 12:33:21;;;;;;;4.60;1.02;;;19.90;1.00;;;;;;5029996;28;20663;-78
2022/09/16 12:35:56;;;;;;;13.32;1.55;;;19.70;1.00;;;;;;5024427;28;20117;-78
2022/09/16 12:38:22;;;;;;;7.97;0.98;;;19.80;1.00;;;;;;5027593;28;20033;-78
2022/09/16 12:41:07;;;;;;;6.72;1.08;;;19.70;1.00;;;;;;5026158;28;20026;-78
2022/09/16 12:43:46;;;;;;;8.65;1.17;;;20.00;1.00;;;;;;5021989;28;20026;-78
2022/09/16 12:46:42;;;;;;;4.40;0.93;;;20.30;1.00;;;;;;5019507;28;20030;-78
2022/09/16 12:49:20;;;;;;;8.85;0.90;;;19.80;1.00;;;;;;5020791;28;20021;-77
2022/09/16 12:51:57;;;;;;;8.40;1.00;;;19.60;1.00;;;;;;5023930;28;20026;-75
2022/09/16 12:54:58;;;;;;;8.32;1.27;;;19.10;1.00;;;;;;5026093;28;20033;-76
2022/09/16 12:57:42;;;;;;;7.07;1.30;;;19.00;1.00;;;;;;5013875;28;20371;-76
2022/09/16 13:00:14;;;;;;;5.88;0.80;;;18.90;1.00;;;;;;5025620;28;20037;-76
2022/09/16 13:02:53;;;;;;;8.90;1.00;;;19.20;1.00;;;;;;5020462;28;20044;-76
2022/09/16 13:05:29;;;;;;;8.05;0.90;;;19.20;1.00;;;;;;5021805;28;20024;-76
2022/09/16 13:07:59;;;;;;;4.75;0.65;;;19.10;1.00;;;;;;5025630;28;20037;-76
2022/09/16 13:10:30;;;;;;;;;;;18.90;1.00;;;;;;5016823;28;20060;-76
2022/09/16 13:12:58;;;;;;;7.22;0.90;;;19.20;1.00;;;;;;5022913;28;19921;-77
2022/09/16 13:15:31;;;;;;;6.53;1.15;;;18.90;1.00;;;;;;5031725;28;20120;-76
2022/09/16 13:18:36;;;;;;;6.20;1.10;;;18.70;1.00;;;;;;5024606;28;20029;-76
2022/09/16 13:21:21;;;;;;;11.73;1.45;;;18.60;1.00;;;;;;5012242;28;20093;-77
2022/09/16 13:23:52;;;;;;;11.57;1.60;;;18.90;1.00;;;;;;5029031;28;20014;-77